Map

Track Data

SID SEASON NUMBER BASIN SUBBASIN NAME ISO_TIME NATURE LAT LON WMO_WIND WMO_PRES WMO_AGENCY TRACK_TYPE DIST2LAND LANDFALL IFLAG USA_AGENCY USA_ATCF_ID USA_LAT USA_LON USA_RECORD USA_STATUS USA_WIND USA_PRES USA_SSHS USA_R34_NE USA_R34_SE USA_R34_SW USA_R34_NW USA_R50_NE USA_R50_SE USA_R50_SW USA_R50_NW USA_R64_NE USA_R64_SE USA_R64_SW USA_R64_NW USA_POCI USA_ROCI USA_RMW USA_EYE TOKYO_LAT TOKYO_LON TOKYO_GRADE TOKYO_WIND TOKYO_PRES TOKYO_R50_DIR TOKYO_R50_LONG TOKYO_R50_SHORT TOKYO_R30_DIR TOKYO_R30_LONG TOKYO_R30_SHORT TOKYO_LAND CMA_LAT CMA_LON CMA_CAT CMA_WIND CMA_PRES HKO_LAT HKO_LON HKO_CAT HKO_WIND HKO_PRES NEWDELHI_LAT NEWDELHI_LON NEWDELHI_GRADE NEWDELHI_WIND NEWDELHI_PRES NEWDELHI_CI NEWDELHI_DP NEWDELHI_POCI REUNION_LAT REUNION_LON REUNION_TYPE REUNION_WIND REUNION_PRES REUNION_TNUM REUNION_CI REUNION_RMW REUNION_R34_NE REUNION_R34_SE REUNION_R34_SW REUNION_R34_NW REUNION_R50_NE REUNION_R50_SE REUNION_R50_SW REUNION_R50_NW REUNION_R64_NE REUNION_R64_SE REUNION_R64_SW REUNION_R64_NW BOM_LAT BOM_LON BOM_TYPE BOM_WIND BOM_PRES BOM_TNUM BOM_CI BOM_RMW BOM_R34_NE BOM_R34_SE BOM_R34_SW BOM_R34_NW BOM_R50_NE BOM_R50_SE BOM_R50_SW BOM_R50_NW BOM_R64_NE BOM_R64_SE BOM_R64_SW BOM_R64_NW BOM_ROCI BOM_POCI BOM_EYE BOM_POS_METHOD BOM_PRES_METHOD NADI_LAT NADI_LON NADI_CAT NADI_WIND NADI_PRES WELLINGTON_LAT WELLINGTON_LON WELLINGTON_WIND WELLINGTON_PRES DS824_LAT DS824_LON DS824_STAGE DS824_WIND DS824_PRES TD9636_LAT TD9636_LON TD9636_STAGE TD9636_WIND TD9636_PRES TD9635_LAT TD9635_LON TD9635_WIND TD9635_PRES TD9635_ROCI NEUMANN_LAT NEUMANN_LON NEUMANN_CLASS NEUMANN_WIND NEUMANN_PRES MLC_LAT MLC_LON MLC_CLASS MLC_WIND MLC_PRES USA_GUST BOM_GUST BOM_GUST_PER REUNION_GUST REUNION_GUST_PER USA_SEAHGT USA_SEARAD_NE USA_SEARAD_SE USA_SEARAD_SW USA_SEARAD_NW STORM_SPEED STORM_DIR
1867247N12340 1867 17 NA NA NOT_NAMED 1867-09-03 12:00:00 TS 12.2000 -20.2000 main 370 370 _____________O -1 12.2000 -20.2000 TD 30 20 279
1867247N12340 1867 17 NA NA NOT_NAMED 1867-09-03 15:00:00 TS 12.3483 -21.2098 main 478 478 _____________P -1 12.3483 -21.2098 TD 30 20 279
1867247N12340 1867 17 NA NA NOT_NAMED 1867-09-03 18:00:00 TS 12.5000 -22.2000 main 564 564 _____________O -1 12.5000 -22.2000 TD 30 19 279
1867247N12340 1867 17 NA NA NOT_NAMED 1867-09-03 21:00:00 TS 12.6571 -23.1575 main 655 655 _____________P -1 12.6571 -23.1575 TD 32 19 279
1867247N12340 1867 17 NA NA NOT_NAMED 1867-09-04 00:00:00 TS 12.8000 -24.1000 main 744 744 _____________O -1 12.8000 -24.1000 TS 35 19 277
1867247N12340 1867 17 NA NA NOT_NAMED 1867-09-04 03:00:00 TS 12.8997 -25.0502 main 845 845 _____________P -1 12.8997 -25.0502 TS 35 19 276
1867247N12340 1867 17 NA NA NOT_NAMED 1867-09-04 06:00:00 TS 13.0000 -26.0000 main 937 937 _____________O -1 13.0000 -26.0000 TS 35 19 277
1867247N12340 1867 17 NA NA NOT_NAMED 1867-09-04 09:00:00 TS 13.1422 -26.9500 main 1041 1039 _____________P -1 13.1422 -26.9500 TS 37 19 279
1867247N12340 1867 17 NA NA NOT_NAMED 1867-09-04 12:00:00 TS 13.3000 -27.9000 main 1133 1133 _____________O -1 13.3000 -27.9000 TS 40 19 280
1867247N12340 1867 17 NA NA NOT_NAMED 1867-09-04 15:00:00 TS 13.4571 -28.8425 main 1226 1226 _____________P -1 13.4571 -28.8425 TS 40 19 279
1867247N12340 1867 17 NA NA NOT_NAMED 1867-09-04 18:00:00 TS 13.6000 -29.8000 main 1332 1332 _____________O -1 13.6000 -29.8000 TS 40 19 277
1867247N12340 1867 17 NA NA NOT_NAMED 1867-09-04 21:00:00 TS 13.6998 -30.8002 main 1438 1438 _____________P -1 13.6998 -30.8002 TS 40 20 276
1867247N12340 1867 17 NA NA NOT_NAMED 1867-09-05 00:00:00 TS 13.8000 -31.8000 main 1544 1544 _____________O -1 13.8000 -31.8000 TS 40 19 277
1867247N12340 1867 17 NA NA NOT_NAMED 1867-09-05 03:00:00 TS 13.9420 -32.7575 main 1651 1650 _____________P -1 13.9420 -32.7575 TS 40 19 279
1867247N12340 1867 17 NA NA NOT_NAMED 1867-09-05 06:00:00 TS 14.1000 -33.7000 main 1746 1746 _____________O -1 14.1000 -33.7000 TS 40 19 280
1867247N12340 1867 17 NA NA NOT_NAMED 1867-09-05 09:00:00 TS 14.2571 -34.6500 main 1852 1852 _____________P -1 14.2571 -34.6500 TS 42 19 279
1867247N12340 1867 17 NA NA NOT_NAMED 1867-09-05 12:00:00 TS 14.4000 -35.6000 main 1948 1948 _____________O -1 14.4000 -35.6000 TS 45 19 278
1867247N12340 1867 17 NA NA NOT_NAMED 1867-09-05 15:00:00 TS 14.4995 -36.5428 main 1983 1911 _____________P -1 14.4995 -36.5428 TS 45 19 276
1867247N12340 1867 17 NA NA NOT_NAMED 1867-09-05 18:00:00 TS 14.6000 -37.5000 main 1902 1831 _____________O -1 14.6000 -37.5000 TS 45 19 277
1867247N12340 1867 17 NA NA NOT_NAMED 1867-09-05 21:00:00 TS 14.7423 -38.5000 main 1823 1763 _____________P -1 14.7423 -38.5000 TS 45 20 279
1867247N12340 1867 17 NA NA NOT_NAMED 1867-09-06 00:00:00 TS 14.9000 -39.5000 main 1755 1691 _____________O -1 14.9000 -39.5000 TS 45 19 279
1867247N12340 1867 17 NA NA NOT_NAMED 1867-09-06 03:00:00 TS 15.0570 -40.4575 main 1691 1639 _____________P -1 15.0570 -40.4575 TS 45 19 279
1867247N12340 1867 17 NA NA NOT_NAMED 1867-09-06 06:00:00 TS 15.2000 -41.4000 main 1632 1577 _____________O -1 15.2000 -41.4000 TS 45 18 278
1867247N12340 1867 17 NA NA NOT_NAMED 1867-09-06 09:00:00 TS 15.2996 -42.3503 main 1570 1526 _____________P -1 15.2996 -42.3503 TS 45 18 276
1867247N12340 1867 17 NA NA NOT_NAMED 1867-09-06 12:00:00 TS 15.4000 -43.3000 main 1520 1474 _____________O -1 15.4000 -43.3000 TS 45 18 278
1867247N12340 1867 17 NA NA NOT_NAMED 1867-09-06 15:00:00 TS 15.5420 -44.2426 main 1474 1433 _____________P -1 15.5420 -44.2426 TS 45 19 279
1867247N12340 1867 17 NA NA NOT_NAMED 1867-09-06 18:00:00 TS 15.7000 -45.2000 main 1427 1383 _____________O -1 15.7000 -45.2000 TS 45 19 279
1867247N12340 1867 17 NA NA NOT_NAMED 1867-09-06 21:00:00 TS 15.8572 -46.2000 main 1387 1350 _____________P -1 15.8572 -46.2000 TS 45 19 279
1867247N12340 1867 17 NA NA NOT_NAMED 1867-09-07 00:00:00 TS 16.0000 -47.2000 main 1345 1313 _____________O -1 16.0000 -47.2000 TS 45 19 277
1867247N12340 1867 17 NA NA NOT_NAMED 1867-09-07 03:00:00 TS 16.0995 -48.1578 main 1309 1285 _____________P -1 16.0995 -48.1578 TS 45 18 276
1867247N12340 1867 17 NA NA NOT_NAMED 1867-09-07 06:00:00 TS 16.2000 -49.1000 main 1280 1251 _____________O -1 16.2000 -49.1000 TS 45 18 278
1867247N12340 1867 17 NA NA NOT_NAMED 1867-09-07 09:00:00 TS 16.3421 -50.0500 main 1247 1236 _____________P -1 16.3421 -50.0500 TS 45 18 279
1867247N12340 1867 17 NA NA NOT_NAMED 1867-09-07 12:00:00 TS 16.5000 -51.0000 main 1237 1184 _____________O -1 16.5000 -51.0000 TS 45 18 280
1867247N12340 1867 17 NA NA NOT_NAMED 1867-09-07 15:00:00 TS 16.6495 -51.9427 main 1184 1118 _____________P -1 16.6495 -51.9427 TS 45 18 279
1867247N12340 1867 17 NA NA NOT_NAMED 1867-09-07 18:00:00 TS 16.8000 -52.9000 main 1109 1042 _____________O -1 16.8000 -52.9000 TS 45 19 279
1867247N12340 1867 17 NA NA NOT_NAMED 1867-09-07 21:00:00 TS 16.9497 -53.9001 main 1034 980 _____________P -1 16.9497 -53.9001 TS 45 19 279
1867247N12340 1867 17 NA NA NOT_NAMED 1867-09-08 00:00:00 TS 17.1000 -54.9000 main 973 918 _____________O -1 17.1000 -54.9000 TS 45 19 279
1867247N12340 1867 17 NA NA NOT_NAMED 1867-09-08 03:00:00 TS 17.2494 -55.8577 main 912 881 _____________P -1 17.2494 -55.8577 TS 45 18 279
1867247N12340 1867 17 NA NA NOT_NAMED 1867-09-08 06:00:00 TS 17.4000 -56.8000 main 876 839 _____________O -1 17.4000 -56.8000 TS 45 18 279
1867247N12340 1867 17 NA NA NOT_NAMED 1867-09-08 09:00:00 TS 17.5495 -57.7502 main 829 742 _____________P -1 17.5495 -57.7502 TS 45 18 279
1867247N12340 1867 17 NA NA NOT_NAMED 1867-09-08 12:00:00 NR 17.7000 -58.7000 main 732 636 _____________O -1 17.7000 -58.7000 TW 45 18 279
1867247N12340 1867 17 NA NA NOT_NAMED 1867-09-08 15:00:00 NR 17.8495 -59.6502 main 625 539 _____________P -1 17.8495 -59.6502 TW 45 18 279
1867247N12340 1867 17 NA NA NOT_NAMED 1867-09-08 18:00:00 NR 18.0000 -60.6000 main 528 433 _____________O -1 18.0000 -60.6000 TW 45 19 279
1867247N12340 1867 17 NA CS NOT_NAMED 1867-09-08 21:00:00 NR 18.1499 -61.5801 main 422 327 _____________P -1 18.1499 -61.5801 TW 42 18 279
1867247N12340 1867 17 NA CS NOT_NAMED 1867-09-09 00:00:00 NR 18.3000 -62.5000 main 327 253 _____________O -1 18.3000 -62.5000 TW 40 16 280
1867247N12340 1867 17 NA CS NOT_NAMED 1867-09-09 03:00:00 NR 18.4268 -63.2805 main 242 170 _____________P -1 18.4268 -63.2805 TW 37 15 282
1867247N12340 1867 17 NA CS NOT_NAMED 1867-09-09 06:00:00 NR 18.6000 -64.0000 main 170 104 _____________O -1 18.6000 -64.0000 TW 35 15 284
1867247N12340 1867 17 NA CS NOT_NAMED 1867-09-09 09:00:00 NR 18.7874 -64.7661 main 95 74 _____________P -1 18.7874 -64.7661 TW 32 15 293
1867247N12340 1867 17 NA NA NOT_NAMED 1867-09-09 12:00:00 NR 19.2000 -65.5000 main 90 90 _____________O -1 19.2000 -65.5000 TW 30 18 313
1867247N12340 1867 17 NA NA NOT_NAMED 1867-09-09 15:00:00 NR 20.0096 -66.1575 main 178 178 _____________P -1 20.0096 -66.1575 TW 27 22 326
1867247N12340 1867 17 NA NA NOT_NAMED 1867-09-09 18:00:00 NR 21.0000 -66.8000 main 290 290 _____________O -1 21.0000 -66.8000 TW 25 23 326
1867247N12340 1867 17 NA NA NOT_NAMED 1867-09-09 21:00:00 NR 21.8928 -67.5374 main 345 340 _____________P -1 21.8928 -67.5374 TW 25 22 324
1867247N12340 1867 17 NA NA NOT_NAMED 1867-09-10 00:00:00 NR 22.8000 -68.2000 main 403 403 _____________O -1 22.8000 -68.2000 TW 25 21 331
1867247N12340 1867 17 NA NA NOT_NAMED 1867-09-10 03:00:00 NR 23.7496 -68.6683 main 477 477 _____________P -1 23.7496 -68.6683 TW 25 20 339
1867247N12340 1867 17 NA NA NOT_NAMED 1867-09-10 06:00:00 NR 24.7000 -69.0000 main 566 566 _____________O -1 24.7000 -69.0000 TW 25 20 343
1867247N12340 1867 17 NA NA NOT_NAMED 1867-09-10 09:00:00 NR 25.6524 -69.3247 main 628 628 _____________P -1 25.6524 -69.3247 TW 25 19 346
1867247N12340 1867 17 NA NA NOT_NAMED 1867-09-10 12:00:00 NR 26.5000 -69.5000 main 690 690 _____________O -1 26.5000 -69.5000 TW 25 15 356
1867247N12340 1867 17 NA NA NOT_NAMED 1867-09-10 15:00:00 NR 27.1524 -69.4608 main 758 758 _____________P -1 27.1524 -69.4608 TW 25 12 8
1867247N12340 1867 17 NA NA NOT_NAMED 1867-09-10 18:00:00 NR 27.7000 -69.3000 main 816 816 _____________O -1 27.7000 -69.3000 TW 25 11 14
1867247N12340 1867 17 NA NA NOT_NAMED 1867-09-10 21:00:00 NR 28.2575 -69.1501 main 880 880 _____________P -1 28.2575 -69.1501 TW 25 11 14
1867247N12340 1867 17 NA NA NOT_NAMED 1867-09-11 00:00:00 TS 28.8000 -69.0000 main 939 934 _____________O -1 28.8000 -69.0000 TD 25 11 11
1867247N12340 1867 17 NA NA NOT_NAMED 1867-09-11 03:00:00 TS 29.3499 -68.8997 main 934 896 _____________P -1 29.3499 -68.8997 TD 27 11 9
1867247N12340 1867 17 NA NA NOT_NAMED 1867-09-11 06:00:00 TS 29.9000 -68.8000 main 896 861 _____________O -1 29.9000 -68.8000 TD 30 11 7
1867247N12340 1867 17 NA NA NOT_NAMED 1867-09-11 09:00:00 TS 30.4719 -68.7315 main 862 840 _____________P -1 30.4719 -68.7315 TD 30 11 13
1867247N12340 1867 17 NA NA NOT_NAMED 1867-09-11 12:00:00 TS 31.0000 -68.5000 main 840 833 _____________O -1 31.0000 -68.5000 TD 30 12 36
1867247N12340 1867 17 NA NA NOT_NAMED 1867-09-11 15:00:00 TS 31.4231 -67.9178 main 856 856 _____________P -1 31.4231 -67.9178 TD 32 14 54
1867247N12340 1867 17 NA NA NOT_NAMED 1867-09-11 18:00:00 TS 31.8000 -67.2000 main 885 885 _____________O -1 31.8000 -67.2000 TS 35 14 55
1867247N12340 1867 17 NA NA NOT_NAMED 1867-09-11 21:00:00 TS 32.1995 -66.5993 main 911 911 _____________P -1 32.1995 -66.5993 TS 35 13 52
1867247N12340 1867 17 NA NA NOT_NAMED 1867-09-12 00:00:00 TS 32.6000 -66.0000 main 941 941 _____________O -1 32.6000 -66.0000 TS 35 13 53
1867247N12340 1867 17 NA NA NOT_NAMED 1867-09-12 03:00:00 TS 32.9999 -65.3496 main 984 984 _____________P -1 32.9999 -65.3496 TS 35 14 54
1867247N12340 1867 17 NA NA NOT_NAMED 1867-09-12 06:00:00 TS 33.4000 -64.7000 main 1021 1015 _____________O -1 33.4000 -64.7000 TS 35 13 53
1867247N12340 1867 17 NA NA NOT_NAMED 1867-09-12 09:00:00 TS 33.8004 -64.0885 main 1019 1004 _____________P -1 33.8004 -64.0885 TS 32 13 51
1867247N12340 1867 17 NA NA NOT_NAMED 1867-09-12 12:00:00 TS 34.2000 -63.5000 main 1009 _____________O -1 34.2000 -63.5000 TD 30 13 51

About IBTrACS Database

This database is a web-friendly format of International Best Track Archive for Climate Stewardship (IBTrACS), a global best track data archive curated by NOAA dating back to 1842.

Updated: 2021-10-21